createdAt,value
2023-04-10T00:00:36.459Z,93.23
2023-04-10T00:01:36.529Z,92.41
2023-04-10T00:02:36.594Z,93.18
2023-04-10T00:03:36.508Z,92.89
2023-04-10T00:04:36.651Z,93.27
2023-04-10T00:05:36.394Z,94.98
2023-04-10T00:06:36.364Z,95.56
2023-04-10T00:07:36.353Z,95.27
2023-04-10T00:08:36.338Z,94.22
2023-04-10T00:09:36.322Z,93.46
2023-04-10T00:10:36.304Z,94.32
2023-04-10T00:11:36.296Z,92.75
2023-04-10T00:12:36.293Z,91.51
2023-04-10T00:13:36.281Z,90.47
2023-04-10T00:14:36.270Z,90.70
2023-04-10T00:15:36.228Z,91.18
2023-04-10T00:16:36.254Z,90.70
2023-04-10T00:17:36.220Z,90.42
2023-04-10T00:18:36.212Z,90.52
2023-04-10T00:19:36.175Z,91.47
2023-04-10T00:20:36.163Z,91.66
2023-04-10T00:21:36.133Z,91.66
2023-04-10T00:22:36.120Z,92.80
2023-04-10T00:23:36.105Z,92.13
2023-04-10T00:24:36.088Z,91.18
2023-04-10T00:25:36.090Z,91.47
2023-04-10T00:26:36.058Z,91.56
2023-04-10T00:27:36.046Z,91.71
2023-04-10T00:28:36.051Z,92.13
2023-04-10T00:29:36.012Z,93.13
2023-04-10T00:30:35.994Z,92.94
2023-04-10T00:31:36.025Z,95.17
2023-04-10T00:32:36.029Z,93.94
2023-04-10T00:33:35.949Z,94.98
2023-04-10T00:34:35.979Z,94.89
2023-04-10T00:35:35.930Z,94.89
2023-04-10T00:36:35.901Z,94.79
2023-04-10T00:37:35.888Z,94.03
2023-04-10T00:38:35.870Z,94.89
2023-04-10T00:39:35.876Z,95.08
2023-04-10T00:40:35.845Z,96.55
2023-04-10T00:41:35.836Z,95.70
2023-04-10T00:42:35.805Z,94.84
2023-04-10T00:43:35.794Z,94.74
2023-04-10T00:44:35.806Z,94.74
2023-04-10T00:45:35.776Z,95.03
2023-04-10T00:46:35.836Z,95.60
2023-04-10T00:47:35.756Z,95.12
2023-04-10T00:48:35.713Z,96.26
2023-04-10T00:49:35.702Z,97.69
2023-04-10T00:50:35.681Z,99.02
2023-04-10T00:51:35.670Z,98.64
2023-04-10T00:52:35.652Z,97.69
2023-04-10T00:53:35.645Z,96.26
2023-04-10T00:54:35.619Z,96.45
2023-04-10T00:55:35.616Z,96.36
2023-04-10T00:56:35.599Z,96.08
2023-04-10T00:57:35.573Z,96.41
2023-04-10T00:58:35.565Z,95.17
2023-04-10T00:59:35.571Z,96.22
2023-04-10T01:00:35.559Z,95.17
2023-04-10T01:01:35.589Z,93.84
2023-04-10T01:02:35.649Z,93.65
2023-04-10T01:03:35.681Z,93.13
2023-04-10T01:04:35.613Z,94.27
2023-04-10T01:05:35.445Z,94.42
2023-04-10T01:06:35.445Z,94.56
2023-04-10T01:07:35.443Z,94.46
2023-04-10T01:08:35.421Z,94.65
2023-04-10T01:09:35.420Z,95.65
2023-04-10T01:10:35.383Z,94.84
2023-04-10T01:11:35.360Z,94.51
2023-04-10T01:12:35.342Z,95.51
2023-04-10T01:13:35.330Z,96.08
2023-04-10T01:14:35.316Z,96.50
2023-04-10T01:15:35.289Z,96.12
2023-04-10T01:16:35.358Z,95.84
2023-04-10T01:17:35.328Z,95.79
2023-04-10T01:18:35.268Z,95.60
2023-04-10T01:19:35.237Z,95.70
2023-04-10T01:20:35.226Z,95.98
2023-04-10T01:21:35.198Z,95.41
2023-04-10T01:22:35.183Z,95.98
2023-04-10T01:23:35.164Z,97.03
2023-04-10T01:24:35.154Z,97.12
2023-04-10T01:25:35.133Z,95.60
2023-04-10T01:26:35.122Z,97.12
2023-04-10T01:27:35.102Z,96.08
2023-04-10T01:28:35.087Z,95.79
2023-04-10T01:29:35.066Z,96.50
2023-04-10T01:30:35.070Z,96.55
2023-04-10T01:31:35.041Z,95.60
2023-04-10T01:32:35.071Z,95.79
2023-04-10T01:33:35.005Z,97.31
2023-04-10T01:34:35.009Z,97.50
2023-04-10T01:35:34.984Z,97.03
2023-04-10T01:36:34.967Z,96.36
2023-04-10T01:37:34.954Z,96.41
2023-04-10T01:38:34.930Z,95.32
2023-04-10T01:39:34.911Z,96.03
2023-04-10T01:40:34.901Z,95.27
2023-04-10T01:41:34.878Z,94.74
2023-04-10T01:42:34.873Z,95.70
2023-04-10T01:43:34.877Z,94.65
2023-04-10T01:44:34.838Z,94.37
2023-04-10T01:45:34.820Z,95.22
2023-04-10T01:46:34.877Z,95.51
2023-04-10T01:47:34.826Z,95.12
2023-04-10T01:48:34.801Z,96.45
2023-04-10T01:49:34.760Z,96.36
2023-04-10T01:50:34.742Z,96.93
2023-04-10T01:51:34.733Z,97.97
2023-04-10T01:52:34.711Z,96.93
2023-04-10T01:53:34.694Z,95.60
2023-04-10T01:54:34.681Z,96.65
2023-04-10T01:55:34.665Z,95.41
2023-04-10T01:56:34.648Z,96.93
2023-04-10T01:57:34.629Z,96.45
2023-04-10T01:58:34.615Z,96.08
2023-04-10T01:59:34.596Z,95.98
2023-04-10T02:00:34.587Z,96.74
2023-04-10T02:01:34.666Z,97.69
2023-04-10T02:02:34.758Z,97.60
2023-04-10T02:03:34.838Z,96.36
2023-04-10T02:04:34.723Z,98.17
2023-04-10T02:05:34.502Z,97.03
2023-04-10T02:06:34.500Z,96.45
2023-04-10T02:07:34.469Z,95.60
2023-04-10T02:08:34.466Z,96.08
2023-04-10T02:09:34.444Z,97.03
2023-04-10T02:10:34.425Z,98.45
2023-04-10T02:11:34.407Z,97.97
2023-04-10T02:12:34.499Z,97.31
2023-04-10T02:13:34.382Z,97.50
2023-04-10T02:14:34.362Z,97.88
2023-04-10T02:15:34.394Z,97.41
2023-04-10T02:16:34.376Z,97.31
2023-04-10T02:17:34.331Z,98.74
2023-04-10T02:18:34.302Z,97.78
2023-04-10T02:19:34.281Z,96.17
2023-04-10T02:20:34.291Z,96.26
2023-04-10T02:21:34.258Z,95.70
2023-04-10T02:22:34.233Z,95.79
2023-04-10T02:23:34.222Z,95.32
2023-04-10T02:24:34.206Z,96.45
2023-04-10T02:25:34.253Z,96.65
2023-04-10T02:26:34.171Z,97.12
2023-04-10T02:27:34.156Z,96.98
2023-04-10T02:28:34.140Z,97.27
2023-04-10T02:29:34.133Z,96.88
2023-04-10T02:30:34.111Z,96.98
2023-04-10T02:31:34.149Z,98.31
2023-04-10T02:32:34.096Z,98.69
2023-04-10T02:33:34.069Z,99.16
2023-04-10T02:34:34.046Z,99.92
2023-04-10T02:35:34.060Z,99.99
2023-04-10T02:36:34.053Z,99.44
2023-04-10T02:37:33.991Z,99.16
2023-04-10T02:38:33.979Z,99.99
2023-04-10T02:39:33.960Z,99.83
2023-04-10T02:40:33.962Z,99.99
2023-04-10T02:41:33.938Z,99.99
2023-04-10T02:42:33.917Z,99.99
2023-04-10T02:43:33.899Z,99.99
2023-04-10T02:44:33.896Z,99.99
2023-04-10T02:45:33.872Z,99.99
2023-04-10T02:46:33.905Z,99.99
2023-04-10T02:47:33.852Z,99.99
2023-04-10T02:48:33.821Z,99.99
2023-04-10T02:49:33.808Z,99.99
2023-04-10T02:50:33.809Z,99.99
2023-04-10T02:51:33.777Z,99.99
2023-04-10T02:52:33.778Z,99.99
2023-04-10T02:53:33.748Z,99.99
2023-04-10T02:54:33.726Z,99.99
2023-04-10T02:55:33.717Z,99.99
2023-04-10T02:56:33.698Z,99.99
2023-04-10T02:57:33.680Z,99.99
2023-04-10T02:58:33.663Z,99.99
2023-04-10T02:59:33.642Z,99.99
2023-04-10T03:00:33.632Z,99.99
2023-04-10T03:01:33.760Z,99.99
2023-04-10T03:02:33.731Z,99.99
2023-04-10T03:03:33.663Z,99.99
2023-04-10T03:04:33.717Z,99.99
2023-04-10T03:05:33.547Z,99.99
2023-04-10T03:06:33.534Z,99.99
2023-04-10T03:07:33.516Z,99.99
2023-04-10T03:08:33.526Z,99.99
2023-04-10T03:09:33.483Z,99.99
2023-04-10T03:10:33.470Z,99.99
2023-04-10T03:11:33.450Z,99.99
2023-04-10T03:12:33.438Z,99.99
2023-04-10T03:13:33.421Z,99.99
2023-04-10T03:14:33.406Z,99.99
2023-04-10T03:15:33.398Z,99.99
2023-04-10T03:16:33.509Z,99.99
2023-04-10T03:17:33.392Z,99.99
2023-04-10T03:18:33.341Z,99.99
2023-04-10T03:19:33.329Z,99.99
2023-04-10T03:20:33.309Z,99.99
2023-04-10T03:21:33.289Z,99.99
2023-04-10T03:22:33.279Z,99.99
2023-04-10T03:23:33.268Z,99.99
2023-04-10T03:24:33.275Z,99.99
2023-04-10T03:25:33.226Z,99.99
2023-04-10T03:26:33.212Z,99.99
2023-04-10T03:27:33.194Z,99.99
2023-04-10T03:28:33.181Z,99.99
2023-04-10T03:29:33.161Z,99.99
2023-04-10T03:30:33.149Z,99.99
2023-04-10T03:31:33.169Z,99.99
2023-04-10T03:32:33.116Z,99.99
2023-04-10T03:33:33.112Z,99.99
2023-04-10T03:34:33.088Z,99.99
2023-04-10T03:35:33.081Z,99.99
2023-04-10T03:36:33.059Z,99.99
2023-04-10T03:37:33.034Z,99.99
2023-04-10T03:38:33.024Z,99.99
2023-04-10T03:39:33.002Z,99.99
2023-04-10T03:40:33.014Z,99.99
2023-04-10T03:41:32.973Z,99.99
2023-04-10T03:42:32.956Z,99.99
2023-04-10T03:43:32.951Z,99.99
2023-04-10T03:44:32.926Z,99.99
2023-04-10T03:45:32.903Z,99.99
2023-04-10T03:46:32.920Z,99.99
2023-04-10T03:47:32.911Z,99.99
2023-04-10T03:48:32.860Z,99.99
2023-04-10T03:49:32.847Z,99.99
2023-04-10T03:50:32.826Z,99.99
2023-04-10T03:51:32.816Z,99.99
2023-04-10T03:52:32.801Z,99.99
2023-04-10T03:53:34.976Z,99.99
2023-04-10T03:54:32.768Z,99.99
2023-04-10T03:55:32.767Z,99.99
2023-04-10T03:56:32.765Z,99.99
2023-04-10T03:57:32.723Z,99.99
2023-04-10T03:58:32.694Z,99.99
2023-04-10T03:59:38.590Z,99.99
2023-04-10T04:00:32.663Z,99.99
2023-04-10T04:01:32.643Z,99.99
2023-04-10T04:02:32.754Z,99.99
2023-04-10T04:03:32.699Z,99.99
2023-04-10T04:04:32.764Z,99.99
2023-04-10T04:05:32.580Z,99.99
2023-04-10T04:06:32.564Z,99.99
2023-04-10T04:07:32.545Z,99.99
2023-04-10T04:08:32.541Z,99.99
2023-04-10T04:09:32.513Z,99.99
2023-04-10T04:10:32.504Z,99.99
2023-04-10T04:11:32.480Z,99.99
2023-04-10T04:12:32.492Z,99.99
2023-04-10T04:13:32.449Z,99.99
2023-04-10T04:14:32.444Z,99.99
2023-04-10T04:15:32.415Z,99.99
2023-04-10T04:16:32.427Z,99.99
2023-04-10T04:17:32.408Z,99.99
2023-04-10T04:18:32.370Z,99.99
2023-04-10T04:19:32.353Z,99.99
2023-04-10T04:20:32.337Z,99.99
2023-04-10T04:21:32.324Z,99.99
2023-04-10T04:22:32.305Z,99.99
2023-04-10T04:23:32.288Z,99.99
2023-04-10T04:24:32.272Z,99.99
2023-04-10T04:25:32.259Z,99.99
2023-04-10T04:26:32.235Z,99.99
2023-04-10T04:27:32.218Z,99.99
2023-04-10T04:28:32.235Z,99.99
2023-04-10T04:29:32.185Z,99.99
2023-04-10T04:30:32.177Z,99.99
2023-04-10T04:31:32.211Z,99.99
2023-04-10T04:32:32.203Z,99.99
2023-04-10T04:33:32.145Z,99.99
2023-04-10T04:34:32.120Z,99.99
2023-04-10T04:35:32.090Z,99.99
2023-04-10T04:36:32.078Z,99.99
2023-04-10T04:37:32.057Z,99.99
2023-04-10T04:38:32.045Z,99.99
2023-04-10T04:39:32.024Z,99.99
2023-04-10T04:40:32.014Z,99.99
2023-04-10T04:41:31.998Z,99.99
2023-04-10T04:42:31.981Z,99.99
2023-04-10T04:43:31.960Z,99.99
2023-04-10T04:44:31.976Z,99.99
2023-04-10T04:45:31.927Z,99.99
2023-04-10T04:46:31.961Z,99.99
2023-04-10T04:47:31.952Z,99.99
2023-04-10T04:48:31.882Z,99.99
2023-04-10T04:49:31.862Z,99.99
2023-04-10T04:50:31.854Z,99.99
2023-04-10T04:51:31.840Z,99.99
2023-04-10T04:52:31.818Z,99.99
2023-04-10T04:53:31.814Z,99.99
2023-04-10T04:54:31.783Z,99.99
2023-04-10T04:55:31.800Z,99.99
2023-04-10T04:56:31.752Z,99.99
2023-04-10T04:57:31.736Z,99.99
2023-04-10T04:58:31.726Z,99.99
2023-04-10T04:59:31.702Z,99.99
2023-04-10T05:00:31.707Z,99.99
2023-04-10T05:01:31.699Z,99.99
2023-04-10T05:02:31.809Z,99.99
2023-04-10T05:03:31.754Z,99.99
2023-04-10T05:04:31.617Z,99.99
2023-04-10T05:05:31.603Z,99.99
2023-04-10T05:06:31.585Z,99.99
2023-04-10T05:07:31.573Z,99.99
2023-04-10T05:08:31.562Z,99.99
2023-04-10T05:09:31.539Z,99.99
2023-04-10T05:10:31.520Z,99.99
2023-04-10T05:11:31.704Z,99.99
2023-04-10T05:12:31.484Z,99.99
2023-04-10T05:13:31.470Z,99.99
2023-04-10T05:14:31.450Z,99.99
2023-04-10T05:15:31.462Z,99.99
2023-04-10T05:16:31.458Z,99.99
2023-04-10T05:17:31.431Z,99.99
2023-04-10T05:18:31.479Z,99.99
2023-04-10T05:19:31.370Z,99.99
2023-04-10T05:20:31.353Z,99.99
2023-04-10T05:21:31.337Z,99.99
2023-04-10T05:22:31.324Z,99.99
2023-04-10T05:23:31.305Z,99.99
2023-04-10T05:24:31.287Z,99.99
2023-04-10T05:25:31.273Z,99.99
2023-04-10T05:26:31.256Z,99.99
2023-04-10T05:27:31.251Z,99.99
2023-04-10T05:28:31.229Z,99.99
2023-04-10T05:29:31.208Z,99.64
2023-04-10T05:30:31.188Z,99.92
2023-04-10T05:31:31.346Z,99.99
2023-04-10T05:32:31.188Z,99.99
2023-04-10T05:33:31.158Z,99.99
2023-04-10T05:34:31.121Z,99.99
2023-04-10T05:35:31.134Z,99.99
2023-04-10T05:36:31.097Z,99.99
2023-04-10T05:37:31.097Z,99.99
2023-04-10T05:38:31.064Z,99.99
2023-04-10T05:39:31.048Z,99.99
2023-04-10T05:40:31.031Z,99.99
2023-04-10T05:41:31.017Z,99.99
2023-04-10T05:42:30.998Z,99.99
2023-04-10T05:43:30.984Z,99.99
2023-04-10T05:44:30.975Z,99.99
2023-04-10T05:45:30.969Z,99.99
2023-04-10T05:46:30.982Z,99.99
2023-04-10T05:47:30.936Z,99.99
2023-04-10T05:48:30.934Z,99.99
2023-04-10T05:49:30.889Z,99.99
2023-04-10T05:50:30.870Z,99.99
2023-04-10T05:51:30.865Z,99.99
2023-04-10T05:52:30.841Z,99.99
2023-04-10T05:53:30.826Z,99.99
2023-04-10T05:54:30.815Z,99.99
2023-04-10T05:55:30.794Z,99.99
2023-04-10T05:56:30.776Z,99.99
2023-04-10T05:57:30.786Z,99.99
2023-04-10T05:58:30.745Z,99.99
2023-04-10T05:59:30.736Z,99.99
2023-04-10T06:00:30.767Z,99.99
2023-04-10T06:01:30.700Z,99.99
2023-04-10T06:02:30.953Z,99.99
2023-04-10T06:03:30.989Z,99.99
2023-04-10T06:04:30.753Z,99.99
2023-04-10T06:05:30.662Z,99.99
2023-04-10T06:06:30.619Z,99.99
2023-04-10T06:07:30.608Z,99.99
2023-04-10T06:08:30.589Z,99.99
2023-04-10T06:09:30.575Z,99.99
2023-04-10T06:10:30.557Z,99.99
2023-04-10T06:11:30.554Z,99.99
2023-04-10T06:12:30.534Z,99.99
2023-04-10T06:13:30.511Z,99.99
2023-04-10T06:14:30.494Z,99.99
2023-04-10T06:15:30.482Z,99.99
2023-04-10T06:16:30.587Z,99.11
2023-04-10T06:17:30.479Z,99.40
2023-04-10T06:18:30.450Z,99.40
2023-04-10T06:19:30.448Z,99.99
2023-04-10T06:20:30.425Z,99.99
2023-04-10T06:21:30.388Z,99.99
2023-04-10T06:22:30.370Z,99.99
2023-04-10T06:23:30.365Z,99.99
2023-04-10T06:24:30.341Z,99.69
2023-04-10T06:25:30.331Z,99.40
2023-04-10T06:26:30.311Z,99.50
2023-04-10T06:27:30.299Z,99.40
2023-04-10T06:28:30.280Z,99.07
2023-04-10T06:29:30.447Z,98.69
2023-04-10T06:30:30.252Z,99.45
2023-04-10T06:31:30.262Z,98.79
2023-04-10T06:32:30.230Z,97.74
2023-04-10T06:33:30.210Z,98.69
2023-04-10T06:34:30.191Z,99.74
2023-04-10T06:35:30.321Z,98.41
2023-04-10T06:36:30.187Z,97.93
2023-04-10T06:37:30.150Z,98.22
2023-04-10T06:38:30.142Z,97.98
2023-04-10T06:39:30.125Z,97.50
2023-04-10T06:40:30.101Z,96.46
2023-04-10T06:41:30.106Z,97.22
2023-04-10T06:42:30.199Z,96.74
2023-04-10T06:43:30.060Z,95.94
2023-04-10T06:44:30.045Z,94.22
2023-04-10T06:45:30.031Z,93.37
2023-04-10T06:46:30.086Z,93.55
2023-04-10T06:47:30.054Z,91.94
2023-04-10T06:48:29.983Z,91.94
2023-04-10T06:49:29.971Z,90.27
2023-04-10T06:50:31.110Z,89.70
2023-04-10T06:51:29.945Z,90.46
2023-04-10T06:52:29.945Z,89.70
2023-04-10T06:53:29.916Z,91.03
2023-04-10T06:54:29.899Z,90.36
2023-04-10T06:55:30.081Z,89.03
2023-04-10T06:56:29.869Z,90.60
2023-04-10T06:57:29.858Z,89.65
2023-04-10T06:58:29.841Z,88.31
2023-04-10T06:59:29.836Z,88.60
2023-04-10T07:00:29.832Z,88.41
2023-04-10T07:01:29.805Z,87.17
2023-04-10T07:02:29.872Z,86.98
2023-04-10T07:03:29.793Z,88.26
2023-04-10T07:04:29.755Z,87.12
2023-04-10T07:05:29.746Z,87.79
2023-04-10T07:06:29.740Z,86.07
2023-04-10T07:07:29.729Z,86.45
2023-04-10T07:08:29.761Z,86.55
2023-04-10T07:09:29.699Z,85.60
2023-04-10T07:10:29.672Z,85.02
2023-04-10T07:11:29.668Z,85.02
2023-04-10T07:12:29.644Z,85.12
2023-04-10T07:13:29.635Z,85.12
2023-04-10T07:14:29.620Z,84.83
2023-04-10T07:15:29.607Z,86.59
2023-04-10T07:16:29.676Z,85.25
2023-04-10T07:17:29.596Z,85.25
2023-04-10T07:18:29.565Z,84.88
2023-04-10T07:19:29.555Z,84.49
2023-04-10T07:20:29.536Z,84.97
2023-04-10T07:21:29.523Z,84.30
2023-04-10T07:22:29.515Z,83.54
2023-04-10T07:23:29.505Z,83.16
2023-04-10T07:24:29.507Z,83.16
2023-04-10T07:25:29.475Z,83.54
2023-04-10T07:26:29.456Z,84.25
2023-04-10T07:27:29.450Z,83.87
2023-04-10T07:28:29.432Z,83.11
2023-04-10T07:29:29.427Z,83.20
2023-04-10T07:30:29.402Z,82.91
2023-04-10T07:31:29.476Z,82.53
2023-04-10T07:32:29.443Z,81.58
2023-04-10T07:33:29.449Z,81.38
2023-04-10T07:34:29.356Z,80.24
2023-04-10T07:35:29.342Z,80.91
2023-04-10T07:36:29.325Z,81.20
2023-04-10T07:37:29.319Z,81.38
2023-04-10T07:38:29.304Z,82.15
2023-04-10T07:39:29.291Z,81.48
2023-04-10T07:40:29.299Z,81.29
2023-04-10T07:41:29.268Z,80.43
2023-04-10T07:42:29.268Z,80.24
2023-04-10T07:43:29.249Z,82.49
2023-04-10T07:44:29.228Z,82.24
2023-04-10T07:45:29.233Z,81.01
2023-04-10T07:46:29.198Z,81.10
2023-04-10T07:47:29.273Z,82.15
2023-04-10T07:48:29.175Z,82.15
2023-04-10T07:49:29.172Z,81.48
2023-04-10T07:50:29.151Z,83.01
2023-04-10T07:51:29.156Z,83.01
2023-04-10T07:52:29.155Z,81.20
2023-04-10T07:53:29.113Z,80.62
2023-04-10T07:54:29.098Z,81.01
2023-04-10T07:55:29.097Z,81.62
2023-04-10T07:56:29.095Z,81.14
2023-04-10T07:57:29.066Z,81.14
2023-04-10T07:58:29.059Z,79.80
2023-04-10T07:59:29.059Z,80.09
2023-04-10T08:00:29.024Z,80.19
2023-04-10T08:01:29.147Z,79.75
2023-04-10T08:02:29.288Z,79.85
2023-04-10T08:03:29.158Z,78.41
2023-04-10T08:04:29.174Z,78.41
2023-04-10T08:05:29.029Z,78.22
2023-04-10T08:06:28.951Z,79.52
2023-04-10T08:07:28.940Z,81.04
2023-04-10T08:08:28.926Z,79.99
2023-04-10T08:09:28.934Z,79.90
2023-04-10T08:10:28.908Z,79.90
2023-04-10T08:11:28.896Z,79.94
2023-04-10T08:12:28.902Z,79.85
2023-04-10T08:13:28.869Z,80.04
2023-04-10T08:14:28.856Z,79.85
2023-04-10T08:15:28.846Z,79.17
2023-04-10T08:16:28.865Z,78.60
2023-04-10T08:17:28.882Z,79.22
2023-04-10T08:18:28.807Z,79.60
2023-04-10T08:19:28.800Z,79.12
2023-04-10T08:20:28.787Z,78.36
2023-04-10T08:21:28.776Z,78.36
2023-04-10T08:22:28.757Z,77.97
2023-04-10T08:23:28.749Z,78.20
2023-04-10T08:24:28.737Z,77.72
2023-04-10T08:25:28.723Z,76.96
2023-04-10T08:26:28.722Z,76.77
2023-04-10T08:27:28.709Z,77.34
2023-04-10T08:28:28.728Z,77.25
2023-04-10T08:29:28.697Z,76.86
2023-04-10T08:30:28.674Z,76.57
2023-04-10T08:31:28.903Z,75.81
2023-04-10T08:32:28.696Z,76.20
2023-04-10T08:33:28.632Z,75.71
2023-04-10T08:34:28.622Z,76.10
2023-04-10T08:35:28.611Z,76.62
2023-04-10T08:36:28.599Z,75.66
2023-04-10T08:37:28.590Z,75.47
2023-04-10T08:38:28.575Z,74.99
2023-04-10T08:39:28.566Z,75.18
2023-04-10T08:40:28.565Z,75.47
2023-04-10T08:41:28.574Z,75.66
2023-04-10T08:42:28.545Z,75.18
2023-04-10T08:43:28.523Z,74.41
2023-04-10T08:44:28.529Z,74.13
2023-04-10T08:45:28.506Z,74.70
2023-04-10T08:46:28.569Z,74.32
2023-04-10T08:47:28.507Z,74.22
2023-04-10T08:48:28.471Z,73.79
2023-04-10T08:49:28.458Z,73.69
2023-04-10T08:50:28.444Z,74.65
2023-04-10T08:51:28.436Z,74.45
2023-04-10T08:52:28.422Z,74.65
2023-04-10T08:53:28.428Z,74.55
2023-04-10T08:54:28.400Z,74.26
2023-04-10T08:55:28.403Z,73.79
2023-04-10T08:56:28.410Z,73.79
2023-04-10T08:57:28.381Z,74.07
2023-04-10T08:58:28.391Z,73.97
2023-04-10T08:59:28.350Z,73.21
2023-04-10T09:00:28.438Z,73.59
2023-04-10T09:01:28.395Z,73.69
2023-04-10T09:02:28.688Z,74.65
2023-04-10T09:03:28.479Z,75.51
2023-04-10T09:04:28.396Z,75.22
2023-04-10T09:05:28.312Z,75.31
2023-04-10T09:06:28.302Z,75.31
2023-04-10T09:07:28.274Z,74.26
2023-04-10T09:08:28.257Z,74.84
2023-04-10T09:09:28.248Z,74.30
2023-04-10T09:10:28.238Z,73.82
2023-04-10T09:11:28.227Z,73.63
2023-04-10T09:12:28.219Z,73.63
2023-04-10T09:13:28.204Z,73.05
2023-04-10T09:14:28.190Z,72.48
2023-04-10T09:15:28.186Z,72.09
2023-04-10T09:16:28.290Z,72.52
2023-04-10T09:17:28.185Z,72.58
2023-04-10T09:18:28.152Z,72.96
2023-04-10T09:19:28.148Z,72.90
2023-04-10T09:20:28.135Z,72.42
2023-04-10T09:21:28.123Z,72.13
2023-04-10T09:22:28.112Z,71.84
2023-04-10T09:23:28.105Z,71.27
2023-04-10T09:24:28.103Z,71.66
2023-04-10T09:25:28.086Z,71.37
2023-04-10T09:26:28.081Z,71.46
2023-04-10T09:27:28.065Z,71.27
2023-04-10T09:28:28.055Z,72.52
2023-04-10T09:29:28.041Z,72.32
2023-04-10T09:30:28.036Z,72.32
2023-04-10T09:31:28.038Z,72.42
2023-04-10T09:32:28.066Z,72.52
2023-04-10T09:33:28.060Z,71.88
2023-04-10T09:34:28.005Z,70.92
2023-04-10T09:35:27.991Z,70.35
2023-04-10T09:36:28.006Z,70.06
2023-04-10T09:37:27.962Z,71.02
2023-04-10T09:38:27.958Z,70.83
2023-04-10T09:39:27.947Z,69.87
2023-04-10T09:40:27.952Z,70.25
2023-04-10T09:41:27.941Z,70.54
2023-04-10T09:42:27.923Z,70.54
2023-04-10T09:43:27.914Z,70.79
2023-04-10T09:44:27.906Z,71.02
2023-04-10T09:45:27.891Z,70.54
2023-04-10T09:46:27.913Z,69.77
2023-04-10T09:47:27.912Z,70.41
2023-04-10T09:48:27.888Z,70.50
2023-04-10T09:49:27.855Z,70.50
2023-04-10T09:50:27.846Z,70.12
2023-04-10T09:51:27.835Z,70.12
2023-04-10T09:52:27.842Z,70.06
2023-04-10T09:53:27.855Z,69.83
2023-04-10T09:54:27.809Z,69.83
2023-04-10T09:55:27.795Z,70.03
2023-04-10T09:56:27.815Z,70.12
2023-04-10T09:57:27.779Z,70.50
2023-04-10T09:58:27.786Z,70.41
2023-04-10T09:59:27.760Z,70.44
2023-04-10T10:00:27.755Z,69.87
2023-04-10T10:01:27.789Z,69.77
2023-04-10T10:02:27.825Z,69.01
2023-04-10T10:03:27.848Z,68.68
2023-04-10T10:04:27.889Z,70.44
2023-04-10T10:05:27.704Z,70.44
2023-04-10T10:06:27.708Z,69.68
2023-04-10T10:07:27.694Z,70.54
2023-04-10T10:08:27.680Z,70.44
2023-04-10T10:09:29.221Z,69.01
2023-04-10T10:10:27.683Z,68.62
2023-04-10T10:11:27.650Z,68.72
2023-04-10T10:12:27.646Z,68.72
2023-04-10T10:13:27.633Z,68.52
2023-04-10T10:14:27.637Z,68.33
2023-04-10T10:15:27.620Z,69.20
2023-04-10T10:16:27.668Z,68.46
2023-04-10T10:17:27.624Z,68.27
2023-04-10T10:18:27.592Z,67.69
2023-04-10T10:19:27.579Z,68.14
2023-04-10T10:20:27.600Z,68.46
2023-04-10T10:21:27.563Z,69.81
2023-04-10T10:22:27.558Z,68.95
2023-04-10T10:23:27.550Z,68.95
2023-04-10T10:24:27.543Z,69.81
2023-04-10T10:25:27.530Z,69.33
2023-04-10T10:26:27.528Z,69.52
2023-04-10T10:27:27.539Z,68.95
2023-04-10T10:28:27.508Z,67.92
2023-04-10T10:29:27.495Z,68.12
2023-04-10T10:30:30.353Z,68.27
2023-04-10T10:31:27.529Z,68.59
2023-04-10T10:32:27.494Z,68.40
2023-04-10T10:33:27.463Z,68.12
2023-04-10T10:34:27.454Z,67.54
2023-04-10T10:35:29.602Z,67.16
2023-04-10T10:36:27.505Z,67.16
2023-04-10T10:37:27.429Z,68.34
2023-04-10T10:38:27.426Z,68.24
2023-04-10T10:39:27.411Z,67.19
2023-04-10T10:40:27.411Z,65.75
2023-04-10T10:41:27.393Z,65.27
2023-04-10T10:42:27.393Z,64.98
2023-04-10T10:43:27.397Z,64.69
2023-04-10T10:44:27.382Z,65.08
2023-04-10T10:45:27.402Z,65.94
2023-04-10T10:46:27.363Z,66.13
2023-04-10T10:47:27.424Z,65.65
2023-04-10T10:48:27.342Z,64.82
2023-04-10T10:49:27.331Z,64.43
2023-04-10T10:50:27.324Z,64.72
2023-04-10T10:51:27.313Z,65.30
2023-04-10T10:52:27.330Z,65.78
2023-04-10T10:53:27.301Z,65.69
2023-04-10T10:54:27.294Z,65.40
2023-04-10T10:55:27.282Z,64.72
2023-04-10T10:56:27.279Z,65.78
2023-04-10T10:57:27.265Z,65.01
2023-04-10T10:58:27.261Z,65.40
2023-04-10T10:59:27.249Z,64.95
2023-04-10T11:00:27.251Z,64.09
2023-04-10T11:01:27.274Z,64.28
2023-04-10T11:02:27.387Z,63.76
2023-04-10T11:03:27.454Z,64.15
2023-04-10T11:04:27.221Z,64.09
2023-04-10T11:05:27.204Z,63.79
2023-04-10T11:06:27.206Z,63.60
2023-04-10T11:07:27.189Z,63.22
2023-04-10T11:08:27.204Z,63.12
2023-04-10T11:09:27.175Z,63.12
2023-04-10T11:10:27.168Z,63.22
2023-04-10T11:11:27.164Z,62.84
2023-04-10T11:12:27.152Z,62.93
2023-04-10T11:13:27.141Z,63.12
2023-04-10T11:14:27.143Z,62.93
2023-04-10T11:15:27.127Z,63.25
2023-04-10T11:16:27.177Z,62.68
2023-04-10T11:17:27.183Z,63.22
2023-04-10T11:18:27.110Z,63.02
2023-04-10T11:19:27.441Z,62.84
2023-04-10T11:20:27.121Z,62.87
2023-04-10T11:21:27.082Z,63.35
2023-04-10T11:22:27.078Z,62.87
2023-04-10T11:23:27.070Z,61.71
2023-04-10T11:24:27.093Z,61.81
2023-04-10T11:25:27.054Z,61.52
2023-04-10T11:26:27.051Z,62.03
2023-04-10T11:27:27.715Z,60.88
2023-04-10T11:28:27.036Z,59.53
2023-04-10T11:29:27.042Z,59.34
2023-04-10T11:30:27.029Z,59.72
2023-04-10T11:31:27.029Z,59.82
2023-04-10T11:32:27.043Z,60.49
2023-04-10T11:33:26.994Z,60.88
2023-04-10T11:34:26.996Z,61.16
2023-04-10T11:35:27.132Z,60.97
2023-04-10T11:36:26.996Z,60.78
2023-04-10T11:37:26.967Z,60.11
2023-04-10T11:38:26.966Z,60.59
2023-04-10T11:39:26.950Z,60.39
2023-04-10T11:40:26.967Z,60.91
2023-04-10T11:41:26.937Z,58.50
2023-04-10T11:42:26.934Z,58.09
2023-04-10T11:43:26.926Z,58.18
2023-04-10T11:44:26.920Z,58.57
2023-04-10T11:45:26.913Z,58.86
2023-04-10T11:46:27.069Z,59.05
2023-04-10T11:47:26.915Z,58.76
2023-04-10T11:48:26.895Z,58.67
2023-04-10T11:49:26.882Z,59.53
2023-04-10T11:50:26.884Z,58.86
2023-04-10T11:51:26.870Z,59.44
2023-04-10T11:52:26.865Z,59.24
2023-04-10T11:53:26.866Z,59.53
2023-04-10T11:54:26.888Z,59.53
2023-04-10T11:55:26.844Z,58.57
2023-04-10T11:56:26.877Z,59.24
2023-04-10T11:57:26.828Z,59.53
2023-04-10T11:58:26.850Z,59.72
2023-04-10T11:59:26.830Z,59.22
2023-04-10T12:00:26.822Z,60.08
2023-04-10T12:01:26.802Z,61.23
2023-04-10T12:02:26.963Z,60.37
2023-04-10T12:03:26.910Z,61.33
2023-04-10T12:04:26.974Z,62.00
2023-04-10T12:05:26.799Z,61.33
2023-04-10T12:06:26.773Z,60.75
2023-04-10T12:07:26.762Z,61.23
2023-04-10T12:08:26.758Z,61.20
2023-04-10T12:09:26.749Z,61.40
2023-04-10T12:10:26.746Z,61.30
2023-04-10T12:11:26.744Z,61.84
2023-04-10T12:12:26.750Z,62.13
2023-04-10T12:13:26.718Z,63.76
2023-04-10T12:14:26.717Z,63.19
2023-04-10T12:15:26.755Z,62.04
2023-04-10T12:16:26.706Z,61.78
2023-04-10T12:17:26.729Z,61.87
2023-04-10T12:18:26.690Z,62.35
2023-04-10T12:19:26.681Z,61.23
2023-04-10T12:20:26.711Z,60.91
2023-04-10T12:21:26.663Z,61.14
2023-04-10T12:22:26.660Z,61.52
2023-04-10T12:23:26.648Z,60.85
2023-04-10T12:24:26.661Z,60.37
2023-04-10T12:25:26.634Z,60.37
2023-04-10T12:26:26.633Z,60.69
2023-04-10T12:27:26.726Z,60.88
2023-04-10T12:28:26.641Z,61.16
2023-04-10T12:29:26.612Z,60.88
2023-04-10T12:30:26.604Z,60.39
2023-04-10T12:31:26.637Z,59.53
2023-04-10T12:32:26.653Z,59.47
2023-04-10T12:33:26.591Z,58.70
2023-04-10T12:34:26.584Z,58.50
2023-04-10T12:35:26.606Z,58.31
2023-04-10T12:36:26.582Z,58.31
2023-04-10T12:37:26.568Z,58.31
2023-04-10T12:38:26.556Z,58.22
2023-04-10T12:39:26.546Z,59.08
2023-04-10T12:40:26.544Z,59.17
2023-04-10T12:41:26.538Z,59.88
2023-04-10T12:42:26.530Z,59.85
2023-04-10T12:43:26.523Z,59.59
2023-04-10T12:44:26.540Z,59.49
2023-04-10T12:45:26.514Z,58.82
2023-04-10T12:46:26.603Z,58.15
2023-04-10T12:47:26.577Z,58.37
2023-04-10T12:48:26.499Z,57.60
2023-04-10T12:49:26.485Z,57.31
2023-04-10T12:50:26.483Z,58.27
2023-04-10T12:51:26.473Z,58.27
2023-04-10T12:52:26.477Z,59.04